Airfield :
LOGIN :

Register | Disclaimer

   EN    FR    IT 

 










Legend :    VFR   Marginal VFR   IFR   Intensive IFR   Very Intensive IFR
Visi :
Ceiling :
>= 8 km
>= 3000ft
5 to 8 km
1000 to 3000 ft
1500m to 5 km
500 to 1000 ft
800 to 1500m
200 to 500 ft
< 800m
< 200 ft
Symbols :   Thunderstorms  Fog  Heavy snow  Heavy precipitations  Wind > 20 kt
SIGMETs :     Misc.  Thunderstorms  Icing  Turbulence  Mountain Waves  Volcanic Ashes







- Airport Elevation : 308 ft
- IATA code : MHG


EDFM - Mannheim-City

CURRENT METAR :
  • 241650Z 33010KT 9999 FEW043 BKN055 13/04 Q1023

EXPIRED METARs :
  • 241620Z 35008KT 320V020 9999 FEW038 SCT045 BKN063 14/04 Q1023
  • 241550Z 33009KT CAVOK 14/05 Q1023
  • 241520Z 35007KT 320V020 9999 FEW037 BKN062 14/06 Q1023
  • 241450Z 34009KT 310V020 9999 FEW037 SCT068 15/05 Q1023
  • 241420Z 35008KT 300V020 9999 SCT033 SCT067 14/06 Q1023

Expired Forecast.
No reported NOTAMs for that airfield.



MET'MAP, your aeronautical weather chart ! - Copyright ORBIFLY December 2007 - Disclaimer

ORBIFLY MET'MAP TEAM :

Programming & Development : Alexandra Zaïnal
Concept & Development : Baudouin d'Aumeries
Co-Development & Prog : Marc-Olivier Méhu
Technical & hardware support : Manuel Goepfert

Contact : metmap@orbifly.com




SOURCES & CREDITS :

   NOAA